Search for airport 
image banner adimage banner adimage banner ad
image banner ad

L78 - Jacumba

Located in Jacumba, United States

ICAO - L78, IATA -

Data provided by Airmate  

General information

Coordinates: N32°36'57" W116°9'56"
Elevation is 2844 feet MSL.
Magnetic variation is 13° East
View others Airports in California

Operational data

Special qualification required
Current time UTC:
Current local time:
Weather at : KNJK - El Centro Naf ( 52 km )
METAR: KNJK 240756Z AUTO 15010KT 10SM CLR 30/17 A2982 RMK AO2 SLP114 T03000167 404060272 $
TAF: TAF KNJK 2407/2507 VRB06KT 9999 SKC QNH2979INS FM250000 26013G20KT 9999 SKC QNH2970INS AUTOMATED SENSOR METWATCH 2407 TIL 2413 T24/2413Z T41/2423Z FS30178
View NOTAMs / SUP AIP / TFR affecting this airport [VIEW]
Communications frequencies: [VIEW]

Runways:

RWY identifierQFULength (ft)Width (ft)SurfaceLDA (ft)
07256260ASPH
25256260ASPH

Airport contact information

Address: Jacumba United States

Satellite view of L78